createdAt,value
2022-10-01T00:00:32.383Z,48.14
2022-10-01T00:01:32.736Z,48.35
2022-10-01T00:02:32.422Z,48.51
2022-10-01T00:03:32.329Z,46.85
2022-10-01T00:04:32.332Z,48.20
2022-10-01T00:05:32.330Z,48.56
2022-10-01T00:06:32.359Z,49.34
2022-10-01T00:07:32.352Z,54.57
2022-10-01T00:08:32.338Z,50.69
2022-10-01T00:09:32.308Z,49.05
2022-10-01T00:10:32.313Z,48.23
2022-10-01T00:11:32.620Z,46.83
2022-10-01T00:12:32.296Z,51.99
2022-10-01T00:13:32.294Z,50.72
2022-10-01T00:14:32.329Z,52.16
2022-10-01T00:15:32.282Z,51.07
2022-10-01T00:16:32.336Z,50.39
2022-10-01T00:17:32.291Z,50.06
2022-10-01T00:18:32.303Z,46.76
2022-10-01T00:19:32.265Z,46.61
2022-10-01T00:20:32.399Z,46.58
2022-10-01T00:21:32.599Z,49.43
2022-10-01T00:22:32.236Z,51.13
2022-10-01T00:23:32.270Z,51.04
2022-10-01T00:24:32.238Z,51.87
2022-10-01T00:25:32.240Z,51.52
2022-10-01T00:26:32.234Z,50.13
2022-10-01T00:27:32.230Z,47.17
2022-10-01T00:28:32.243Z,53.81
2022-10-01T00:29:32.247Z,52.45
2022-10-01T00:30:32.205Z,54.32
2022-10-01T00:31:32.674Z,53.12
2022-10-01T00:32:32.226Z,47.96
2022-10-01T00:33:32.207Z,46.74
2022-10-01T00:34:32.227Z,46.82
2022-10-01T00:35:32.189Z,47.91
2022-10-01T00:36:32.199Z,48.73
2022-10-01T00:37:32.191Z,48.58
2022-10-01T00:38:32.186Z,48.08
2022-10-01T00:39:32.201Z,48.35
2022-10-01T00:40:32.173Z,47.38
2022-10-01T00:41:32.709Z,46.89
2022-10-01T00:42:32.162Z,47.02
2022-10-01T00:43:32.147Z,46.92
2022-10-01T00:44:32.188Z,50.05
2022-10-01T00:45:32.212Z,47.94
2022-10-01T00:46:32.166Z,48.54
2022-10-01T00:47:32.125Z,50.37
2022-10-01T00:48:32.126Z,50.69
2022-10-01T00:49:32.136Z,47.74
2022-10-01T00:50:32.120Z,48.77
2022-10-01T00:51:32.548Z,48.01
2022-10-01T00:52:32.105Z,47.79
2022-10-01T00:53:32.114Z,51.46
2022-10-01T00:54:32.118Z,47.05
2022-10-01T00:55:32.086Z,49.60
2022-10-01T00:56:32.131Z,47.52
2022-10-01T00:57:32.099Z,48.02
2022-10-01T00:58:32.111Z,50.29
2022-10-01T00:59:32.090Z,51.82
2022-10-01T01:00:32.091Z,49.08
2022-10-01T01:01:32.327Z,47.15
2022-10-01T01:02:32.118Z,48.03
2022-10-01T01:03:32.062Z,48.63
2022-10-01T01:04:32.055Z,46.74
2022-10-01T01:05:32.063Z,48.49
2022-10-01T01:06:32.056Z,48.57
2022-10-01T01:07:32.068Z,46.97
2022-10-01T01:08:32.026Z,46.79
2022-10-01T01:09:32.035Z,47.66
2022-10-01T01:10:32.034Z,47.12
2022-10-01T01:11:32.332Z,48.43
2022-10-01T01:12:32.044Z,50.29
2022-10-01T01:13:32.017Z,48.60
2022-10-01T01:14:32.036Z,48.13
2022-10-01T01:15:32.022Z,47.87
2022-10-01T01:16:31.999Z,48.57
2022-10-01T01:17:32.003Z,49.92
2022-10-01T01:18:32.020Z,47.87
2022-10-01T01:19:32.012Z,46.94
2022-10-01T01:20:31.990Z,46.89
2022-10-01T01:21:32.288Z,48.46
2022-10-01T01:22:31.995Z,52.58
2022-10-01T01:23:31.966Z,48.11
2022-10-01T01:24:31.992Z,51.81
2022-10-01T01:25:31.995Z,49.07
2022-10-01T01:26:31.995Z,46.97
2022-10-01T01:27:32.020Z,46.86
2022-10-01T01:28:31.945Z,49.29
2022-10-01T01:29:31.990Z,47.06
2022-10-01T01:30:31.925Z,49.13
2022-10-01T01:31:32.360Z,50.75
2022-10-01T01:32:31.933Z,47.14
2022-10-01T01:33:31.940Z,51.95
2022-10-01T01:34:31.941Z,47.30
2022-10-01T01:35:31.910Z,47.50
2022-10-01T01:36:31.952Z,48.45
2022-10-01T01:37:31.951Z,50.18
2022-10-01T01:38:31.895Z,49.81
2022-10-01T01:39:31.896Z,49.33
2022-10-01T01:40:31.884Z,47.19
2022-10-01T01:41:32.237Z,46.98
2022-10-01T01:42:31.883Z,49.33
2022-10-01T01:43:31.876Z,49.57
2022-10-01T01:44:31.882Z,54.56
2022-10-01T01:45:31.888Z,53.52
2022-10-01T01:46:31.884Z,48.63
2022-10-01T01:47:31.859Z,47.02
2022-10-01T01:48:31.878Z,46.93
2022-10-01T01:49:31.880Z,46.88
2022-10-01T01:50:31.852Z,47.04
2022-10-01T01:51:32.159Z,51.01
2022-10-01T01:52:31.836Z,48.14
2022-10-01T01:53:31.875Z,47.28
2022-10-01T01:54:31.809Z,48.18
2022-10-01T01:55:31.863Z,47.78
2022-10-01T01:56:31.826Z,52.16
2022-10-01T01:57:31.821Z,51.50
2022-10-01T01:58:31.825Z,47.22
2022-10-01T01:59:31.794Z,47.67
2022-10-01T02:00:31.786Z,50.17
2022-10-01T02:01:32.162Z,47.50
2022-10-01T02:02:31.850Z,47.28
2022-10-01T02:03:31.802Z,49.65
2022-10-01T02:04:31.794Z,47.48
2022-10-01T02:05:31.798Z,47.30
2022-10-01T02:06:31.782Z,50.22
2022-10-01T02:07:31.766Z,48.22
2022-10-01T02:08:32.781Z,47.42
2022-10-01T02:09:31.770Z,48.36
2022-10-01T02:10:31.780Z,53.31
2022-10-01T02:11:32.039Z,48.92
2022-10-01T02:12:31.731Z,50.47
2022-10-01T02:13:31.738Z,50.94
2022-10-01T02:14:31.735Z,49.17
2022-10-01T02:15:31.737Z,48.01
2022-10-01T02:16:31.714Z,47.72
2022-10-01T02:17:31.740Z,52.03
2022-10-01T02:18:31.734Z,53.40
2022-10-01T02:19:31.737Z,50.12
2022-10-01T02:20:31.693Z,48.54
2022-10-01T02:21:32.068Z,48.06
2022-10-01T02:22:31.703Z,48.65
2022-10-01T02:23:31.702Z,48.64
2022-10-01T02:24:31.692Z,47.19
2022-10-01T02:25:31.678Z,47.32
2022-10-01T02:26:31.667Z,48.82
2022-10-01T02:27:31.726Z,47.62
2022-10-01T02:28:31.765Z,49.55
2022-10-01T02:29:31.678Z,47.43
2022-10-01T02:30:31.645Z,48.59
2022-10-01T02:31:31.981Z,49.22
2022-10-01T02:32:31.674Z,47.57
2022-10-01T02:33:31.651Z,48.48
2022-10-01T02:34:31.677Z,48.51
2022-10-01T02:35:31.675Z,47.39
2022-10-01T02:36:31.674Z,48.18
2022-10-01T02:37:31.639Z,47.48
2022-10-01T02:38:31.665Z,47.52
2022-10-01T02:39:31.627Z,48.99
2022-10-01T02:40:31.638Z,48.79
2022-10-01T02:41:32.036Z,49.86
2022-10-01T02:42:31.587Z,49.46
2022-10-01T02:43:31.598Z,49.11
2022-10-01T02:44:31.583Z,50.24
2022-10-01T02:45:31.641Z,49.30
2022-10-01T02:46:31.618Z,52.07
2022-10-01T02:47:31.614Z,49.70
2022-10-01T02:48:31.566Z,47.87
2022-10-01T02:49:31.581Z,49.38
2022-10-01T02:50:31.571Z,48.33
2022-10-01T02:51:31.839Z,48.94
2022-10-01T02:52:31.584Z,49.90
2022-10-01T02:53:31.545Z,49.49
2022-10-01T02:54:31.541Z,51.05
2022-10-01T02:55:31.558Z,51.07
2022-10-01T02:56:31.532Z,48.09
2022-10-01T02:57:31.565Z,49.91
2022-10-01T02:58:31.526Z,48.75
2022-10-01T02:59:31.564Z,52.92
2022-10-01T03:00:31.518Z,49.46
2022-10-01T03:01:31.699Z,49.99
2022-10-01T03:02:31.739Z,49.77
2022-10-01T03:03:31.506Z,50.62
2022-10-01T03:04:31.520Z,48.89
2022-10-01T03:05:31.513Z,48.92
2022-10-01T03:06:31.487Z,48.10
2022-10-01T03:07:31.482Z,51.20
2022-10-01T03:08:31.481Z,49.98
2022-10-01T03:09:31.498Z,50.03
2022-10-01T03:10:31.487Z,51.88
2022-10-01T03:11:31.953Z,49.71
2022-10-01T03:12:31.451Z,50.37
2022-10-01T03:13:31.442Z,50.75
2022-10-01T03:14:31.472Z,52.88
2022-10-01T03:15:31.443Z,51.23
2022-10-01T03:16:31.445Z,52.09
2022-10-01T03:17:31.433Z,51.03
2022-10-01T03:18:31.428Z,50.31
2022-10-01T03:19:31.452Z,51.75
2022-10-01T03:20:31.419Z,51.99
2022-10-01T03:21:31.764Z,51.49
2022-10-01T03:22:31.416Z,54.02
2022-10-01T03:23:31.402Z,50.94
2022-10-01T03:24:31.420Z,54.63
2022-10-01T03:25:31.420Z,53.75
2022-10-01T03:26:31.396Z,54.53
2022-10-01T03:27:31.388Z,50.66
2022-10-01T03:28:31.426Z,50.52
2022-10-01T03:29:31.383Z,53.01
2022-10-01T03:30:31.398Z,52.40
2022-10-01T03:31:31.895Z,50.73
2022-10-01T03:32:31.367Z,51.93
2022-10-01T03:33:31.350Z,52.60
2022-10-01T03:34:31.355Z,53.21
2022-10-01T03:35:31.376Z,54.81
2022-10-01T03:36:31.363Z,53.06
2022-10-01T03:37:31.336Z,51.55
2022-10-01T03:38:31.328Z,52.83
2022-10-01T03:39:31.342Z,54.58
2022-10-01T03:40:31.309Z,52.24
2022-10-01T03:41:31.450Z,57.91
2022-10-01T03:42:31.324Z,54.31
2022-10-01T03:43:31.307Z,53.17
2022-10-01T03:44:31.295Z,54.62
2022-10-01T03:45:31.342Z,55.09
2022-10-01T03:46:31.334Z,54.50
2022-10-01T03:47:31.311Z,58.91
2022-10-01T03:48:31.296Z,55.02
2022-10-01T03:49:31.266Z,54.95
2022-10-01T03:50:31.275Z,54.44
2022-10-01T03:51:31.502Z,56.67
2022-10-01T03:52:31.248Z,52.16
2022-10-01T03:53:31.291Z,53.56
2022-10-01T03:54:31.254Z,56.12
2022-10-01T03:55:31.242Z,55.31
2022-10-01T03:56:31.237Z,52.98
2022-10-01T03:57:31.263Z,53.82
2022-10-01T03:58:31.228Z,52.79
2022-10-01T03:59:31.231Z,53.63
2022-10-01T04:00:31.308Z,56.01
2022-10-01T04:01:31.536Z,53.86
2022-10-01T04:02:31.291Z,54.04
2022-10-01T04:03:31.203Z,54.34
2022-10-01T04:04:31.221Z,54.86
2022-10-01T04:05:31.213Z,54.43
2022-10-01T04:06:31.217Z,53.80
2022-10-01T04:07:31.177Z,52.23
2022-10-01T04:08:31.228Z,54.50
2022-10-01T04:09:31.173Z,53.96
2022-10-01T04:10:31.189Z,53.81
2022-10-01T04:11:31.364Z,53.90
2022-10-01T04:12:31.150Z,54.26
2022-10-01T04:13:31.149Z,52.98
2022-10-01T04:14:31.175Z,54.00
2022-10-01T04:15:31.140Z,55.80
2022-10-01T04:16:31.236Z,54.38
2022-10-01T04:17:31.142Z,55.97
2022-10-01T04:18:31.132Z,57.21
2022-10-01T04:19:31.134Z,55.52
2022-10-01T04:20:31.143Z,54.44
2022-10-01T04:21:31.398Z,55.99
2022-10-01T04:22:31.113Z,53.54
2022-10-01T04:23:31.108Z,55.41
2022-10-01T04:24:31.093Z,54.31
2022-10-01T04:25:31.098Z,55.35
2022-10-01T04:26:31.085Z,52.44
2022-10-01T04:27:31.131Z,54.65
2022-10-01T04:28:31.209Z,54.20
2022-10-01T04:29:31.090Z,54.63
2022-10-01T04:30:31.055Z,54.80
2022-10-01T04:31:31.178Z,54.97
2022-10-01T04:32:31.080Z,56.79
2022-10-01T04:33:31.069Z,56.12
2022-10-01T04:34:31.048Z,57.79
2022-10-01T04:35:31.048Z,56.57
2022-10-01T04:36:31.037Z,56.14
2022-10-01T04:37:31.063Z,55.45
2022-10-01T04:38:31.046Z,55.78
2022-10-01T04:39:31.047Z,56.30
2022-10-01T04:40:31.014Z,55.85
2022-10-01T04:41:31.484Z,54.30
2022-10-01T04:42:31.037Z,55.51
2022-10-01T04:43:31.057Z,55.44
2022-10-01T04:44:31.068Z,58.14
2022-10-01T04:45:31.006Z,55.80
2022-10-01T04:46:31.083Z,55.83
2022-10-01T04:47:33.567Z,55.57
2022-10-01T04:48:31.989Z,57.17
2022-10-01T04:49:31.018Z,53.72
2022-10-01T04:50:31.005Z,55.12
2022-10-01T04:51:31.140Z,54.74
2022-10-01T04:52:30.971Z,54.81
2022-10-01T04:53:30.990Z,54.76
2022-10-01T04:54:30.994Z,54.61
2022-10-01T04:55:30.945Z,55.14
2022-10-01T04:56:30.953Z,54.70
2022-10-01T04:57:30.934Z,56.24
2022-10-01T04:58:30.951Z,56.04
2022-10-01T04:59:30.961Z,52.48
2022-10-01T05:00:30.952Z,54.73
2022-10-01T05:01:31.146Z,52.86
2022-10-01T05:02:30.950Z,54.24
2022-10-01T05:03:30.916Z,55.82
2022-10-01T05:04:30.909Z,55.73
2022-10-01T05:05:30.917Z,54.65
2022-10-01T05:06:30.885Z,54.86
2022-10-01T05:07:30.902Z,56.60
2022-10-01T05:08:30.895Z,55.45
2022-10-01T05:09:30.880Z,53.05
2022-10-01T05:10:30.899Z,53.66
2022-10-01T05:11:31.098Z,53.41
2022-10-01T05:12:30.864Z,56.48
2022-10-01T05:13:30.861Z,56.46
2022-10-01T05:14:30.875Z,57.48
2022-10-01T05:15:30.890Z,55.48
2022-10-01T05:16:30.926Z,55.20
2022-10-01T05:17:30.834Z,57.27
2022-10-01T05:18:30.827Z,57.01
2022-10-01T05:19:30.847Z,57.00
2022-10-01T05:20:30.835Z,55.58
2022-10-01T05:21:30.999Z,57.11
2022-10-01T05:22:30.850Z,57.22
2022-10-01T05:23:30.823Z,55.59
2022-10-01T05:24:30.798Z,55.79
2022-10-01T05:25:30.873Z,56.79
2022-10-01T05:26:30.816Z,57.67
2022-10-01T05:27:30.805Z,57.52
2022-10-01T05:28:30.818Z,57.14
2022-10-01T05:29:30.779Z,57.02
2022-10-01T05:30:30.779Z,56.08
2022-10-01T05:31:30.901Z,56.02
2022-10-01T05:32:30.794Z,55.85
2022-10-01T05:33:30.783Z,55.35
2022-10-01T05:34:30.793Z,56.78
2022-10-01T05:35:30.744Z,56.26
2022-10-01T05:36:30.766Z,53.93
2022-10-01T05:37:30.750Z,57.89
2022-10-01T05:38:30.777Z,56.42
2022-10-01T05:39:31.735Z,54.02
2022-10-01T05:40:30.736Z,56.00
2022-10-01T05:41:30.974Z,56.40
2022-10-01T05:42:30.727Z,56.69
2022-10-01T05:43:30.762Z,53.88
2022-10-01T05:44:30.745Z,55.97
2022-10-01T05:45:30.784Z,56.25
2022-10-01T05:46:30.706Z,57.73
2022-10-01T05:47:30.700Z,57.16
2022-10-01T05:48:30.695Z,57.11
2022-10-01T05:49:30.726Z,56.35
2022-10-01T05:50:30.678Z,55.28
2022-10-01T05:51:30.729Z,55.80
2022-10-01T05:52:30.721Z,56.67
2022-10-01T05:53:30.671Z,53.24
2022-10-01T05:54:30.686Z,54.69
2022-10-01T05:55:30.661Z,55.02
2022-10-01T05:56:30.641Z,55.72
2022-10-01T05:57:30.647Z,55.75
2022-10-01T05:58:30.644Z,56.04
2022-10-01T05:59:31.990Z,58.51
2022-10-01T06:00:31.657Z,57.53
2022-10-01T06:01:30.726Z,59.51
2022-10-01T06:02:30.774Z,59.92
2022-10-01T06:03:30.639Z,60.01
2022-10-01T06:04:30.628Z,59.77
2022-10-01T06:05:30.649Z,59.02
2022-10-01T06:06:30.596Z,56.88
2022-10-01T06:07:30.599Z,58.41
2022-10-01T06:08:30.608Z,58.70
2022-10-01T06:09:30.586Z,58.39
2022-10-01T06:10:30.623Z,57.98
2022-10-01T06:11:30.624Z,55.60
2022-10-01T06:12:30.582Z,57.82
2022-10-01T06:13:30.562Z,58.65
2022-10-01T06:14:30.581Z,58.81
2022-10-01T06:15:30.581Z,56.69
2022-10-01T06:16:30.652Z,56.82
2022-10-01T06:17:30.593Z,56.73
2022-10-01T06:18:30.546Z,58.38
2022-10-01T06:19:30.554Z,57.59
2022-10-01T06:20:30.548Z,58.89
2022-10-01T06:21:30.672Z,56.82
2022-10-01T06:22:30.536Z,57.82
2022-10-01T06:23:30.553Z,59.28
2022-10-01T06:24:30.526Z,57.48
2022-10-01T06:25:30.585Z,56.56
2022-10-01T06:26:30.560Z,58.62
2022-10-01T06:27:30.510Z,56.20
2022-10-01T06:28:30.569Z,54.40
2022-10-01T06:29:31.562Z,55.44
2022-10-01T06:30:30.503Z,55.80
2022-10-01T06:31:30.612Z,54.61
2022-10-01T06:32:34.787Z,56.00
2022-10-01T06:33:31.519Z,56.55
2022-10-01T06:34:30.504Z,57.41
2022-10-01T06:35:30.460Z,57.34
2022-10-01T06:36:30.461Z,55.35
2022-10-01T06:37:30.509Z,54.99
2022-10-01T06:38:30.476Z,55.57
2022-10-01T06:39:30.483Z,57.42
2022-10-01T06:40:30.446Z,57.55
2022-10-01T06:41:30.431Z,56.53
2022-10-01T06:42:30.451Z,55.91
2022-10-01T06:43:30.447Z,58.62
2022-10-01T06:44:30.459Z,59.15
2022-10-01T06:45:30.460Z,55.33
2022-10-01T06:46:30.421Z,55.20
2022-10-01T06:47:30.411Z,57.93
2022-10-01T06:48:30.429Z,54.29
2022-10-01T06:49:30.403Z,54.14
2022-10-01T06:50:30.428Z,57.93
2022-10-01T06:51:30.396Z,57.56
2022-10-01T06:52:30.431Z,54.11
2022-10-01T06:53:30.380Z,54.45
2022-10-01T06:54:30.380Z,55.91
2022-10-01T06:55:30.380Z,56.34
2022-10-01T06:56:30.458Z,55.51
2022-10-01T06:57:30.393Z,56.80
2022-10-01T06:58:30.363Z,53.62
2022-10-01T06:59:30.373Z,55.92
2022-10-01T07:00:30.352Z,56.11
2022-10-01T07:01:30.385Z,56.59
2022-10-01T07:02:30.477Z,55.26
2022-10-01T07:03:30.351Z,57.71
2022-10-01T07:04:30.350Z,54.74
2022-10-01T07:05:30.330Z,54.16
2022-10-01T07:06:30.339Z,56.33
2022-10-01T07:07:30.331Z,52.39
2022-10-01T07:08:30.367Z,55.92
2022-10-01T07:09:30.304Z,56.02
2022-10-01T07:10:30.307Z,54.68
2022-10-01T07:11:30.297Z,55.43
2022-10-01T07:12:30.300Z,56.07
2022-10-01T07:13:30.322Z,58.37
2022-10-01T07:14:30.307Z,59.05
2022-10-01T07:15:30.299Z,55.69
2022-10-01T07:16:30.277Z,57.56
2022-10-01T07:17:30.279Z,56.66
2022-10-01T07:18:30.279Z,57.76
2022-10-01T07:19:30.286Z,56.39
2022-10-01T07:20:30.250Z,55.78
2022-10-01T07:21:30.249Z,56.17
2022-10-01T07:22:30.244Z,57.87
2022-10-01T07:23:30.240Z,55.93
2022-10-01T07:24:30.243Z,57.00
2022-10-01T07:25:30.243Z,56.01
2022-10-01T07:26:30.213Z,57.59
2022-10-01T07:27:30.262Z,56.02
2022-10-01T07:28:30.250Z,57.92
2022-10-01T07:29:30.200Z,55.47
2022-10-01T07:30:30.213Z,56.08
2022-10-01T07:31:30.236Z,55.13
2022-10-01T07:32:30.178Z,56.63
2022-10-01T07:33:30.188Z,55.22
2022-10-01T07:34:30.181Z,54.88
2022-10-01T07:35:30.239Z,55.91
2022-10-01T07:36:30.162Z,55.34
2022-10-01T07:37:30.156Z,57.64
2022-10-01T07:38:30.178Z,57.78
2022-10-01T07:39:30.152Z,57.01
2022-10-01T07:40:30.200Z,58.56
2022-10-01T07:41:30.167Z,58.17
2022-10-01T07:42:30.149Z,56.92
2022-10-01T07:43:30.167Z,59.22
2022-10-01T07:44:30.146Z,57.77
2022-10-01T07:45:30.231Z,59.36
2022-10-01T07:46:34.495Z,55.76
2022-10-01T07:47:31.904Z,56.94
2022-10-01T07:48:30.136Z,56.77
2022-10-01T07:49:30.085Z,58.53
2022-10-01T07:50:30.096Z,56.68
2022-10-01T07:51:30.119Z,57.61
2022-10-01T07:52:30.122Z,56.07
2022-10-01T07:53:30.094Z,56.42
2022-10-01T07:54:30.066Z,57.45
2022-10-01T07:55:30.069Z,59.96
2022-10-01T07:56:30.061Z,57.60
2022-10-01T07:57:30.097Z,58.76
2022-10-01T07:58:30.070Z,57.62
2022-10-01T07:59:30.056Z,55.82
2022-10-01T08:00:30.040Z,59.13
2022-10-01T08:01:30.132Z,58.31
2022-10-01T08:02:30.158Z,58.71
2022-10-01T08:03:30.048Z,58.08
2022-10-01T08:04:30.087Z,56.46
2022-10-01T08:05:30.029Z,57.97
2022-10-01T08:06:30.013Z,58.01
2022-10-01T08:07:30.025Z,55.63
2022-10-01T08:08:30.003Z,57.31
2022-10-01T08:09:30.042Z,57.92
2022-10-01T08:10:30.048Z,57.38
2022-10-01T08:11:30.000Z,56.58
2022-10-01T08:12:30.004Z,57.21
2022-10-01T08:13:29.996Z,58.97
2022-10-01T08:14:29.987Z,56.21
2022-10-01T08:15:30.008Z,57.36
2022-10-01T08:16:30.046Z,58.35
2022-10-01T08:17:29.973Z,55.76
2022-10-01T08:18:29.956Z,56.14
2022-10-01T08:19:29.965Z,58.28
2022-10-01T08:20:29.969Z,58.57
2022-10-01T08:21:29.960Z,59.45
2022-10-01T08:22:29.945Z,55.93
2022-10-01T08:23:29.982Z,57.07
2022-10-01T08:24:29.927Z,55.94
2022-10-01T08:25:30.003Z,58.50
2022-10-01T08:26:29.959Z,58.46
2022-10-01T08:27:29.973Z,56.71
2022-10-01T08:28:30.070Z,59.13
2022-10-01T08:29:29.915Z,58.65
2022-10-01T08:30:29.907Z,55.98
2022-10-01T08:31:30.981Z,57.53
2022-10-01T08:32:29.915Z,57.04
2022-10-01T08:33:29.891Z,57.21
2022-10-01T08:34:29.887Z,57.24
2022-10-01T08:35:29.899Z,58.29
2022-10-01T08:36:29.881Z,57.03
2022-10-01T08:37:29.891Z,54.06
2022-10-01T08:38:29.885Z,56.49
2022-10-01T08:39:29.846Z,58.19
2022-10-01T08:40:30.867Z,58.81
2022-10-01T08:41:29.854Z,57.76
2022-10-01T08:42:29.955Z,57.62
2022-10-01T08:43:29.845Z,56.24
2022-10-01T08:44:30.513Z,57.02
2022-10-01T08:45:29.892Z,57.14
2022-10-01T08:46:29.838Z,55.88
2022-10-01T08:47:29.837Z,59.84
2022-10-01T08:48:29.805Z,57.94
2022-10-01T08:49:29.842Z,54.86
2022-10-01T08:50:29.809Z,55.67
2022-10-01T08:51:29.795Z,55.51
2022-10-01T08:52:29.791Z,58.52
2022-10-01T08:53:29.792Z,56.47
2022-10-01T08:54:30.785Z,56.08
2022-10-01T08:55:29.765Z,57.75
2022-10-01T08:56:29.818Z,59.02
2022-10-01T08:57:29.760Z,57.65
2022-10-01T08:58:29.761Z,57.47
2022-10-01T08:59:29.752Z,57.53
2022-10-01T09:00:29.769Z,56.79
2022-10-01T09:01:29.810Z,57.82
2022-10-01T09:02:29.747Z,59.69
2022-10-01T09:03:29.742Z,59.05
2022-10-01T09:04:29.795Z,58.99
2022-10-01T09:05:29.746Z,56.06
2022-10-01T09:06:29.734Z,56.90
2022-10-01T09:07:29.716Z,57.54
2022-10-01T09:08:29.710Z,54.95
2022-10-01T09:09:29.719Z,57.49
2022-10-01T09:10:29.695Z,56.23
2022-10-01T09:11:29.717Z,54.33
2022-10-01T09:12:29.688Z,57.36
2022-10-01T09:13:29.691Z,57.03
2022-10-01T09:14:29.672Z,57.23
2022-10-01T09:15:29.668Z,59.12
2022-10-01T09:16:29.734Z,58.93
2022-10-01T09:17:29.696Z,58.15
2022-10-01T09:18:29.665Z,57.99
2022-10-01T09:19:29.656Z,57.33
2022-10-01T09:20:29.650Z,56.50
2022-10-01T09:21:29.630Z,55.76
2022-10-01T09:22:29.657Z,57.10
2022-10-01T09:23:29.619Z,54.98
2022-10-01T09:24:29.632Z,55.74
2022-10-01T09:25:29.619Z,57.65
2022-10-01T09:26:29.611Z,57.00
2022-10-01T09:27:29.681Z,56.78
2022-10-01T09:28:29.631Z,56.64
2022-10-01T09:29:29.586Z,57.66
2022-10-01T09:30:29.606Z,57.66
2022-10-01T09:31:29.613Z,55.89
2022-10-01T09:32:29.576Z,56.31
2022-10-01T09:33:29.622Z,55.80
2022-10-01T09:34:29.578Z,56.71
2022-10-01T09:35:29.561Z,57.85
2022-10-01T09:36:29.570Z,55.46
2022-10-01T09:37:29.547Z,57.40
2022-10-01T09:38:29.623Z,53.79
2022-10-01T09:39:29.554Z,56.05
2022-10-01T09:40:29.554Z,58.07
2022-10-01T09:41:29.570Z,55.52
2022-10-01T09:42:29.547Z,57.19
2022-10-01T09:43:29.547Z,57.79
2022-10-01T09:44:29.508Z,56.86
2022-10-01T09:45:29.657Z,56.72
2022-10-01T09:46:29.507Z,58.50
2022-10-01T09:47:29.504Z,57.88
2022-10-01T09:48:29.616Z,55.35
2022-10-01T09:49:29.487Z,57.58
2022-10-01T09:50:29.526Z,57.01
2022-10-01T09:51:29.649Z,57.91
2022-10-01T09:52:29.495Z,55.26
2022-10-01T09:53:29.543Z,57.07
2022-10-01T09:54:29.451Z,55.03
2022-10-01T09:55:29.472Z,56.22
2022-10-01T09:56:29.433Z,55.92
2022-10-01T09:57:29.464Z,57.61
2022-10-01T09:58:29.420Z,56.63
2022-10-01T09:59:29.427Z,56.06
2022-10-01T10:00:29.425Z,58.14
2022-10-01T10:01:29.440Z,56.96
2022-10-01T10:02:29.564Z,57.07
2022-10-01T10:03:29.490Z,57.18
2022-10-01T10:04:29.378Z,56.97
2022-10-01T10:05:29.393Z,58.41
2022-10-01T10:06:29.402Z,58.59
2022-10-01T10:07:29.511Z,57.09
2022-10-01T10:08:29.392Z,57.70
2022-10-01T10:09:29.350Z,56.57
2022-10-01T10:10:29.435Z,57.15
2022-10-01T10:11:29.347Z,56.36
2022-10-01T10:12:29.334Z,56.99
2022-10-01T10:13:29.380Z,56.24
2022-10-01T10:14:29.386Z,55.90
2022-10-01T10:15:29.320Z,57.86
2022-10-01T10:16:29.312Z,57.68
2022-10-01T10:17:29.313Z,56.70
2022-10-01T10:18:29.324Z,55.62
2022-10-01T10:19:29.310Z,55.50
2022-10-01T10:20:29.291Z,55.91
2022-10-01T10:21:29.287Z,58.09
2022-10-01T10:22:29.283Z,58.20
2022-10-01T10:23:29.385Z,60.00
2022-10-01T10:24:29.322Z,57.32
2022-10-01T10:25:29.287Z,57.54
2022-10-01T10:26:29.329Z,56.82
2022-10-01T10:27:29.252Z,54.13
2022-10-01T10:28:29.354Z,57.59
2022-10-01T10:29:29.229Z,55.98
2022-10-01T10:30:29.255Z,57.76
2022-10-01T10:31:29.324Z,57.96
2022-10-01T10:32:29.209Z,59.00
2022-10-01T10:33:29.223Z,58.40
2022-10-01T10:34:29.227Z,57.38
2022-10-01T10:35:29.319Z,59.18
2022-10-01T10:36:29.243Z,57.07
2022-10-01T10:37:29.192Z,58.33
2022-10-01T10:38:29.210Z,58.35
2022-10-01T10:39:29.268Z,55.87
2022-10-01T10:40:29.862Z,56.52
2022-10-01T10:41:30.187Z,56.86
2022-10-01T10:42:29.166Z,57.34
2022-10-01T10:43:29.156Z,56.11
2022-10-01T10:44:29.176Z,56.50
2022-10-01T10:45:29.145Z,56.88
2022-10-01T10:46:29.281Z,56.54
2022-10-01T10:47:29.122Z,55.70
2022-10-01T10:48:29.163Z,55.99
2022-10-01T10:49:29.114Z,57.62
2022-10-01T10:50:29.110Z,55.97
2022-10-01T10:51:30.122Z,56.59
2022-10-01T10:52:29.101Z,55.82
2022-10-01T10:53:29.129Z,57.26
2022-10-01T10:54:29.092Z,55.08
2022-10-01T10:55:29.101Z,56.85
2022-10-01T10:56:29.082Z,57.69
2022-10-01T10:57:29.063Z,54.54
2022-10-01T10:58:29.086Z,56.16
2022-10-01T10:59:29.041Z,56.62
2022-10-01T11:00:29.054Z,59.19
2022-10-01T11:01:29.129Z,56.35
2022-10-01T11:02:29.058Z,55.97
2022-10-01T11:03:29.037Z,57.54
2022-10-01T11:04:29.099Z,58.68
2022-10-01T11:05:29.083Z,59.51
2022-10-01T11:06:29.004Z,57.15
2022-10-01T11:07:29.004Z,54.39
2022-10-01T11:08:28.997Z,56.95
2022-10-01T11:09:29.004Z,56.72
2022-10-01T11:10:28.974Z,56.26
2022-10-01T11:11:29.123Z,56.29
2022-10-01T11:12:28.954Z,55.77
2022-10-01T11:13:29.975Z,56.58
2022-10-01T11:14:28.960Z,56.29
2022-10-01T11:15:28.985Z,59.85
2022-10-01T11:16:28.938Z,57.60
2022-10-01T11:17:28.925Z,55.59
2022-10-01T11:18:28.932Z,58.30
2022-10-01T11:19:28.917Z,54.98
2022-10-01T11:20:28.933Z,56.73
2022-10-01T11:21:28.923Z,57.43
2022-10-01T11:22:28.927Z,59.09
2022-10-01T11:23:28.879Z,54.92
2022-10-01T11:24:28.888Z,57.32
2022-10-01T11:25:28.894Z,57.99
2022-10-01T11:26:29.001Z,59.15
2022-10-01T11:27:29.027Z,57.03
2022-10-01T11:28:28.902Z,59.08
2022-10-01T11:29:28.867Z,56.19
2022-10-01T11:30:28.853Z,56.22
2022-10-01T11:31:28.912Z,54.19
2022-10-01T11:32:28.853Z,56.94
2022-10-01T11:33:28.838Z,58.38
2022-10-01T11:34:28.831Z,59.72
2022-10-01T11:35:28.861Z,56.48
2022-10-01T11:36:28.889Z,56.16
2022-10-01T11:37:28.810Z,55.88
2022-10-01T11:38:28.779Z,56.05
2022-10-01T11:39:28.815Z,56.28
2022-10-01T11:40:28.813Z,59.22
2022-10-01T11:41:28.786Z,56.31
2022-10-01T11:42:28.851Z,58.02
2022-10-01T11:43:28.762Z,59.35
2022-10-01T11:44:28.767Z,55.27
2022-10-01T11:45:28.765Z,55.38
2022-10-01T11:46:28.827Z,57.01
2022-10-01T11:47:28.744Z,56.44
2022-10-01T11:48:28.753Z,56.62
2022-10-01T11:49:28.742Z,56.87
2022-10-01T11:50:28.728Z,57.95
2022-10-01T11:51:28.718Z,56.55
2022-10-01T11:52:28.702Z,55.91
2022-10-01T11:53:28.781Z,56.23
2022-10-01T11:54:28.694Z,56.69
2022-10-01T11:55:28.673Z,55.19
2022-10-01T11:56:28.677Z,57.89
2022-10-01T11:57:28.696Z,55.87
2022-10-01T11:58:28.719Z,55.87
2022-10-01T11:59:28.662Z,54.52
2022-10-01T12:00:28.638Z,55.90
2022-10-01T12:01:28.686Z,57.66
2022-10-01T12:02:28.631Z,56.36
2022-10-01T12:03:28.632Z,54.74
2022-10-01T12:04:28.661Z,55.37
2022-10-01T12:05:28.718Z,55.35
2022-10-01T12:06:33.615Z,56.39
2022-10-01T12:07:30.623Z,55.38
2022-10-01T12:08:28.620Z,56.24
2022-10-01T12:09:28.599Z,55.97
2022-10-01T12:10:28.622Z,56.61
2022-10-01T12:11:28.645Z,57.55
2022-10-01T12:12:28.561Z,57.49
2022-10-01T12:13:28.736Z,57.21
2022-10-01T12:14:28.574Z,55.88
2022-10-01T12:15:28.588Z,56.97
2022-10-01T12:16:28.673Z,56.76
2022-10-01T12:17:28.577Z,57.25
2022-10-01T12:18:28.860Z,55.33
2022-10-01T12:19:28.535Z,57.60
2022-10-01T12:20:28.520Z,55.68
2022-10-01T12:21:28.566Z,57.30
2022-10-01T12:22:28.527Z,54.74
2022-10-01T12:23:28.499Z,55.83
2022-10-01T12:24:28.502Z,55.84
2022-10-01T12:25:28.466Z,54.82
2022-10-01T12:26:28.469Z,55.51
2022-10-01T12:27:28.501Z,56.76
2022-10-01T12:28:28.485Z,58.06
2022-10-01T12:29:28.502Z,56.99
2022-10-01T12:30:28.489Z,57.80
2022-10-01T12:31:28.462Z,56.67
2022-10-01T12:32:28.420Z,55.13
2022-10-01T12:33:28.422Z,56.26
2022-10-01T12:34:28.452Z,53.58
2022-10-01T12:35:28.421Z,55.71
2022-10-01T12:36:28.401Z,55.15
2022-10-01T12:37:28.396Z,55.46
2022-10-01T12:38:28.415Z,55.89
2022-10-01T12:39:28.370Z,56.86
2022-10-01T12:40:28.410Z,55.25
2022-10-01T12:41:28.361Z,55.91
2022-10-01T12:42:28.344Z,55.60
2022-10-01T12:43:28.380Z,53.63
2022-10-01T12:44:28.348Z,56.95
2022-10-01T12:45:28.371Z,57.28
2022-10-01T12:46:28.364Z,55.71
2022-10-01T12:47:28.308Z,55.47
2022-10-01T12:48:28.365Z,55.58
2022-10-01T12:49:28.300Z,55.84
2022-10-01T12:50:28.289Z,55.32
2022-10-01T12:51:29.311Z,56.12
2022-10-01T12:52:28.295Z,52.96